createdAt,value
2018-04-24T00:01:28.785Z,18.30
2018-04-24T00:03:54.886Z,22.63
2018-04-24T00:06:20.988Z,17.60
2018-04-24T00:08:47.118Z,19.53
2018-04-24T00:11:13.954Z,15.37
2018-04-24T00:13:40.083Z,21.90
2018-04-24T00:16:06.198Z,15.50
2018-04-24T00:18:32.285Z,24.37
2018-04-24T00:20:59.161Z,13.77
2018-04-24T00:23:25.987Z,22.23
2018-04-24T00:25:52.074Z,18.83
2018-04-24T00:28:18.198Z,18.00
2018-04-24T00:30:45.306Z,21.30
2018-04-24T00:33:11.433Z,26.30
2018-04-24T00:35:38.126Z,18.70
2018-04-24T00:38:04.231Z,18.67
2018-04-24T00:40:30.349Z,19.87
2018-04-24T00:42:56.458Z,21.10
2018-04-24T00:45:22.542Z,19.63
2018-04-24T00:47:48.656Z,26.00
2018-04-24T00:50:14.733Z,19.27
2018-04-24T00:52:40.861Z,25.80
2018-04-24T00:55:06.951Z,18.53
2018-04-24T00:57:33.151Z,24.20
2018-04-24T00:59:59.305Z,18.93
2018-04-24T01:02:25.392Z,18.60
2018-04-24T01:04:51.504Z,15.40
2018-04-24T01:07:17.589Z,22.77
2018-04-24T01:09:43.708Z,17.27
2018-04-24T01:12:09.817Z,18.00
2018-04-24T01:14:35.906Z,18.60
2018-04-24T01:17:02.005Z,15.80
2018-04-24T01:19:28.105Z,16.63
2018-04-24T01:21:54.968Z,13.80
2018-04-24T01:24:21.800Z,15.43
2018-04-24T01:26:47.904Z,18.60
2018-04-24T01:29:14.013Z,17.97
2018-04-24T01:31:40.837Z,14.30
2018-04-24T01:34:06.952Z,17.43
2018-04-24T01:36:33.030Z,17.63
2018-04-24T01:38:59.145Z,17.13
2018-04-24T01:41:25.263Z,16.33
2018-04-24T01:43:51.371Z,18.87
2018-04-24T01:46:17.462Z,28.73
2018-04-24T01:48:43.573Z,16.37
2018-04-24T01:51:09.653Z,14.87
2018-04-24T01:53:35.728Z,16.47
2018-04-24T01:56:01.841Z,18.63
2018-04-24T01:58:28.700Z,19.17
2018-04-24T02:00:55.537Z,23.17
2018-04-24T02:03:21.635Z,16.40
2018-04-24T02:05:47.724Z,21.27
2018-04-24T02:08:14.598Z,17.27
2018-04-24T02:10:40.687Z,15.23
2018-04-24T02:13:06.817Z,18.73
2018-04-24T02:15:32.915Z,20.00
2018-04-24T02:17:59.030Z,14.87
2018-04-24T02:20:25.857Z,17.53
2018-04-24T02:22:51.961Z,21.60
2018-04-24T02:25:18.081Z,14.93
2018-04-24T02:27:44.162Z,16.13
2018-04-24T02:30:10.272Z,15.90
2018-04-24T02:32:36.389Z,13.20
2018-04-24T02:35:03.270Z,14.57
2018-04-24T02:37:29.400Z,19.63
2018-04-24T02:39:55.554Z,23.57
2018-04-24T02:42:21.646Z,15.50
2018-04-24T02:44:47.760Z,15.40
2018-04-24T02:47:13.852Z,13.53
2018-04-24T02:49:39.974Z,17.20
2018-04-24T02:52:06.809Z,14.50
2018-04-24T02:54:32.921Z,12.93
2018-04-24T02:56:59.057Z,15.70
2018-04-24T02:59:25.197Z,17.70
2018-04-24T03:01:51.273Z,12.63
2018-04-24T03:04:18.192Z,12.80
2018-04-24T03:06:44.295Z,18.90
2018-04-24T03:09:10.432Z,20.67
2018-04-24T03:11:36.549Z,13.23
2018-04-24T03:14:02.674Z,12.33
2018-04-24T03:16:28.833Z,11.33
2018-04-24T03:18:54.893Z,13.83
2018-04-24T03:21:20.998Z,12.60
2018-04-24T03:23:47.853Z,10.97
2018-04-24T03:26:14.693Z,11.97
2018-04-24T03:28:40.814Z,18.27
2018-04-24T03:31:07.054Z,10.23
2018-04-24T03:33:33.194Z,11.68
2018-04-24T03:35:59.326Z,10.90
2018-04-24T03:38:25.438Z,10.65
2018-04-24T03:40:51.570Z,15.95
2018-04-24T03:43:17.668Z,25.27
2018-04-24T03:45:44.594Z,22.77
2018-04-24T03:48:10.740Z,21.05
2018-04-24T03:50:36.846Z,24.65
2018-04-24T03:53:02.970Z,20.58
2018-04-24T03:55:29.107Z,15.70
2018-04-24T03:57:55.930Z,16.27
2018-04-24T04:00:22.037Z,16.07
2018-04-24T04:02:48.170Z,12.77
2018-04-24T04:05:14.278Z,16.97
2018-04-24T04:07:40.385Z,14.77
2018-04-24T04:10:06.453Z,17.60
2018-04-24T04:12:32.553Z,14.35
2018-04-24T04:14:58.670Z,9.15
2018-04-24T04:17:37.274Z,15.10
2018-04-24T04:20:15.642Z,9.47
2018-04-24T04:22:55.641Z,14.68
2018-04-24T04:25:22.454Z,10.90
2018-04-24T04:27:48.562Z,23.43
2018-04-24T04:30:14.643Z,13.07
2018-04-24T04:32:40.747Z,10.80
2018-04-24T04:35:06.817Z,15.40
2018-04-24T04:37:33.102Z,10.50
2018-04-24T04:39:59.179Z,11.50
2018-04-24T04:42:25.294Z,10.70
2018-04-24T04:44:51.388Z,15.52
2018-04-24T04:47:17.450Z,15.23
2018-04-24T04:49:43.551Z,13.73
2018-04-24T04:52:09.650Z,12.50
2018-04-24T04:54:35.734Z,11.10
2018-04-24T04:57:01.854Z,10.90
2018-04-24T04:59:27.959Z,10.90
2018-04-24T05:01:54.032Z,10.23
2018-04-24T05:04:20.134Z,10.65
2018-04-24T05:06:46.242Z,13.90
2018-04-24T05:09:13.070Z,10.90
2018-04-24T05:11:39.145Z,11.38
2018-04-24T05:14:05.262Z,15.02
2018-04-24T05:16:32.098Z,13.18
2018-04-24T05:18:58.211Z,15.57
2018-04-24T05:21:24.315Z,16.30
2018-04-24T05:23:50.442Z,18.30
2018-04-24T05:26:17.262Z,24.13
2018-04-24T05:28:43.345Z,15.07
2018-04-24T05:31:09.463Z,17.00
2018-04-24T05:33:36.306Z,24.37
2018-04-24T05:36:02.431Z,15.67
2018-04-24T05:38:28.505Z,14.97
2018-04-24T05:40:55.342Z,17.97
2018-04-24T05:43:21.447Z,17.00
2018-04-24T05:45:47.548Z,13.90
2018-04-24T05:48:13.679Z,11.50
2018-04-24T05:50:40.495Z,13.40
2018-04-24T05:53:06.635Z,15.57
2018-04-24T05:55:32.721Z,14.10
2018-04-24T05:57:58.814Z,14.07
2018-04-24T06:00:24.917Z,11.97
2018-04-24T06:02:51.049Z,20.50
2018-04-24T06:05:17.183Z,13.50
2018-04-24T06:07:43.266Z,18.97
2018-04-24T06:10:09.340Z,12.90
2018-04-24T06:12:36.185Z,14.00
2018-04-24T06:15:03.054Z,12.30
2018-04-24T06:17:29.139Z,13.40
2018-04-24T06:19:55.206Z,12.10
2018-04-24T06:22:21.282Z,9.97
2018-04-24T06:24:47.433Z,9.30
2018-04-24T06:27:13.514Z,12.53
2018-04-24T06:29:39.624Z,9.30
2018-04-24T06:32:05.750Z,11.63
2018-04-24T06:34:31.894Z,11.80
2018-04-24T06:36:57.968Z,9.73
2018-04-24T06:39:24.082Z,8.53
2018-04-24T06:41:50.162Z,10.03
2018-04-24T06:44:16.359Z,9.67
2018-04-24T06:46:42.449Z,11.27
2018-04-24T06:49:09.286Z,7.87
2018-04-24T06:51:35.502Z,8.07
2018-04-24T06:54:01.583Z,8.23
2018-04-24T06:56:28.425Z,6.60
2018-04-24T06:58:55.250Z,13.40
2018-04-24T07:01:21.359Z,8.80
2018-04-24T07:03:47.433Z,8.50
2018-04-24T07:06:13.510Z,12.07
2018-04-24T07:08:40.354Z,10.47
2018-04-24T07:11:06.457Z,10.03
2018-04-24T07:13:32.567Z,10.57
2018-04-24T07:15:58.650Z,10.00
2018-04-24T07:18:24.758Z,13.30
2018-04-24T07:20:50.857Z,11.60
2018-04-24T07:23:17.666Z,10.87
2018-04-24T07:25:43.767Z,15.47
2018-04-24T07:28:09.846Z,12.00
2018-04-24T07:30:35.949Z,9.10
2018-04-24T07:33:02.036Z,10.90
2018-04-24T07:35:28.125Z,13.23
2018-04-24T07:37:54.238Z,12.57
2018-04-24T07:40:20.335Z,15.53
2018-04-24T07:42:46.409Z,13.07
2018-04-24T07:45:13.254Z,13.37
2018-04-24T07:47:40.065Z,10.23
2018-04-24T07:50:06.189Z,17.70
2018-04-24T07:52:32.263Z,20.63
2018-04-24T07:54:58.358Z,14.20
2018-04-24T07:57:24.434Z,12.17
2018-04-24T07:59:50.533Z,17.43
2018-04-24T08:02:16.606Z,11.83
2018-04-24T08:04:42.710Z,11.50
2018-04-24T08:07:08.790Z,18.10
2018-04-24T08:09:34.874Z,12.37
2018-04-24T08:12:00.972Z,10.73
2018-04-24T08:14:27.054Z,10.43
2018-04-24T08:16:53.170Z,8.23
2018-04-24T08:19:20.001Z,10.17
2018-04-24T08:21:46.103Z,10.87
2018-04-24T08:24:12.218Z,7.20
2018-04-24T08:26:38.310Z,8.73
2018-04-24T08:29:04.446Z,19.90
2018-04-24T08:31:30.543Z,16.40
2018-04-24T08:33:56.646Z,9.63
2018-04-24T08:36:23.489Z,13.87
2018-04-24T08:38:49.579Z,8.27
2018-04-24T08:41:15.759Z,8.63
2018-04-24T08:43:41.854Z,10.00
2018-04-24T08:46:07.966Z,10.10
2018-04-24T08:48:34.060Z,8.10
2018-04-24T08:51:00.166Z,11.83
2018-04-24T08:53:26.278Z,9.13
2018-04-24T08:55:53.095Z,8.27
2018-04-24T08:58:19.210Z,9.27
2018-04-24T09:00:45.299Z,8.10
2018-04-24T09:03:12.151Z,9.97
2018-04-24T09:05:38.351Z,7.60
2018-04-24T09:08:04.462Z,13.70
2018-04-24T09:10:30.554Z,12.37
2018-04-24T09:12:56.636Z,8.20
2018-04-24T09:15:22.762Z,8.77
2018-04-24T09:17:49.628Z,7.43
2018-04-24T09:20:15.726Z,7.73
2018-04-24T09:22:41.827Z,10.80
2018-04-24T09:25:07.938Z,8.03
2018-04-24T09:27:34.755Z,8.27
2018-04-24T09:30:01.735Z,7.40
2018-04-24T09:32:28.562Z,5.53
2018-04-24T09:34:54.666Z,7.30
2018-04-24T09:37:20.774Z,7.23
2018-04-24T09:39:47.610Z,5.50
2018-04-24T09:42:13.721Z,6.30
2018-04-24T09:44:39.798Z,6.50
2018-04-24T09:47:06.658Z,5.00
2018-04-24T09:49:33.544Z,6.70
2018-04-24T09:51:59.610Z,4.63
2018-04-24T09:54:25.695Z,4.60
2018-04-24T09:56:52.642Z,11.20
2018-04-24T09:59:18.634Z,5.00
2018-04-24T10:01:44.715Z,4.67
2018-04-24T10:04:11.580Z,5.07
2018-04-24T10:06:38.407Z,8.03
2018-04-24T10:09:05.477Z,8.07
2018-04-24T10:11:31.562Z,8.60
2018-04-24T10:13:57.680Z,4.90
2018-04-24T10:16:23.785Z,5.43
2018-04-24T10:18:49.890Z,5.33
2018-04-24T10:21:15.984Z,7.30
2018-04-24T10:23:42.801Z,5.13
2018-04-24T10:26:08.914Z,4.90
2018-04-24T10:28:35.065Z,5.00
2018-04-24T10:31:01.185Z,5.87
2018-04-24T10:33:27.265Z,7.00
2018-04-24T10:35:53.402Z,6.40
2018-04-24T10:38:19.497Z,9.60
2018-04-24T10:40:45.584Z,5.50
2018-04-24T10:43:11.707Z,6.80
2018-04-24T10:45:37.862Z,5.47
2018-04-24T10:48:04.165Z,6.70
2018-04-24T10:50:30.181Z,6.90
2018-04-24T10:52:56.295Z,14.23
2018-04-24T10:55:23.106Z,6.57
2018-04-24T10:57:49.230Z,6.23
2018-04-24T11:00:15.356Z,8.70
2018-04-24T11:02:41.462Z,7.27
2018-04-24T11:05:07.579Z,7.30
2018-04-24T11:07:33.672Z,9.17
2018-04-24T11:09:59.782Z,7.90
2018-04-24T11:12:26.602Z,8.27
2018-04-24T11:14:52.724Z,7.43
2018-04-24T11:17:18.815Z,8.87
2018-04-24T11:19:45.680Z,10.43
2018-04-24T11:22:12.538Z,7.90
2018-04-24T11:24:39.394Z,8.33
2018-04-24T11:27:06.215Z,9.30
2018-04-24T11:29:32.342Z,9.50
2018-04-24T11:31:58.455Z,11.17
2018-04-24T11:34:24.546Z,9.20
2018-04-24T11:36:51.409Z,8.30
2018-04-24T11:39:18.218Z,9.43
2018-04-24T11:41:44.314Z,8.97
2018-04-24T11:44:11.166Z,8.93
2018-04-24T11:46:37.254Z,8.30
2018-04-24T11:49:03.344Z,9.00
2018-04-24T11:51:29.446Z,9.27
2018-04-24T11:53:55.550Z,8.67
2018-04-24T11:56:21.629Z,10.63
2018-04-24T11:58:47.826Z,9.83
2018-04-24T12:01:13.838Z,10.57
2018-04-24T12:03:40.694Z,9.20
2018-04-24T12:06:06.775Z,8.07
2018-04-24T12:08:32.849Z,8.40
2018-04-24T12:10:59.710Z,11.20
2018-04-24T12:13:26.550Z,8.67
2018-04-24T12:15:52.641Z,12.90
2018-04-24T12:18:18.731Z,7.33
2018-04-24T12:20:44.818Z,8.40
2018-04-24T12:23:10.910Z,10.37
2018-04-24T12:25:37.014Z,10.97
2018-04-24T12:28:03.102Z,8.37
2018-04-24T12:30:30.010Z,7.00
2018-04-24T12:32:56.143Z,6.27
2018-04-24T12:35:22.214Z,9.07
2018-04-24T12:37:48.323Z,9.73
2018-04-24T12:40:14.390Z,5.43
2018-04-24T12:42:40.463Z,8.30
2018-04-24T12:45:06.573Z,8.00
2018-04-24T12:47:32.670Z,5.83
2018-04-24T12:49:58.737Z,6.23
2018-04-24T12:52:24.834Z,7.33
2018-04-24T12:54:50.934Z,6.20
2018-04-24T12:57:17.743Z,5.20
2018-04-24T12:59:43.883Z,7.20
2018-04-24T13:02:09.974Z,9.37
2018-04-24T13:04:36.811Z,9.60
2018-04-24T13:07:02.882Z,4.03
2018-04-24T13:09:28.996Z,5.33
2018-04-24T13:11:55.818Z,8.47
2018-04-24T13:14:21.890Z,4.70
2018-04-24T13:16:48.798Z,4.27
2018-04-24T13:19:14.893Z,5.80
2018-04-24T13:21:41.788Z,5.00
2018-04-24T13:24:07.849Z,6.57
2018-04-24T13:26:33.945Z,5.60
2018-04-24T13:29:00.025Z,4.20
2018-04-24T13:31:26.125Z,3.80
2018-04-24T13:33:52.193Z,7.63
2018-04-24T13:36:18.294Z,4.97
2018-04-24T13:38:44.367Z,3.87
2018-04-24T13:41:10.535Z,4.70
2018-04-24T13:43:36.542Z,3.40
2018-04-24T13:46:02.684Z,4.90
2018-04-24T13:48:28.794Z,5.90
2018-04-24T13:50:54.863Z,5.67
2018-04-24T13:53:20.970Z,3.90
2018-04-24T13:55:47.070Z,5.00
2018-04-24T13:58:13.922Z,5.33
2018-04-24T14:00:40.151Z,3.57
2018-04-24T14:03:06.276Z,3.50
2018-04-24T14:05:32.371Z,2.60
2018-04-24T14:07:58.494Z,3.33
2018-04-24T14:10:25.316Z,2.80
2018-04-24T14:12:51.428Z,3.40
2018-04-24T14:15:17.534Z,3.57
2018-04-24T14:17:43.640Z,3.13
2018-04-24T14:20:09.751Z,2.37
2018-04-24T14:22:35.862Z,3.17
2018-04-24T14:25:01.968Z,3.67
2018-04-24T14:27:28.798Z,2.63
2018-04-24T14:29:54.926Z,2.63
2018-04-24T14:32:21.006Z,3.00
2018-04-24T14:34:47.883Z,4.40
2018-04-24T14:37:13.994Z,5.60
2018-04-24T14:39:40.966Z,2.63
2018-04-24T14:42:07.048Z,2.63
2018-04-24T14:44:33.158Z,3.70
2018-04-24T14:46:59.272Z,4.03
2018-04-24T14:49:26.091Z,4.00
2018-04-24T14:51:52.282Z,2.50
2018-04-24T14:54:18.438Z,3.33
2018-04-24T14:56:44.554Z,4.23
2018-04-24T14:59:10.637Z,2.13
2018-04-24T15:01:36.758Z,3.30
2018-04-24T15:04:02.835Z,3.70
2018-04-24T15:06:29.044Z,2.30
2018-04-24T15:08:55.135Z,2.77
2018-04-24T15:11:22.020Z,2.97
2018-04-24T15:13:48.190Z,2.50
2018-04-24T15:16:14.362Z,5.20
2018-04-24T15:18:41.266Z,2.90
2018-04-24T15:21:08.310Z,2.90
2018-04-24T15:23:34.444Z,4.87
2018-04-24T15:26:00.525Z,5.23
2018-04-24T15:28:26.638Z,5.13
2018-04-24T15:30:53.490Z,3.63
2018-04-24T15:33:19.562Z,3.60
2018-04-24T15:35:45.653Z,2.50
2018-04-24T15:38:11.717Z,6.73
2018-04-24T15:40:37.818Z,4.40
2018-04-24T15:43:04.623Z,2.30
2018-04-24T15:45:30.754Z,6.03
2018-04-24T15:47:56.882Z,3.27
2018-04-24T15:50:23.000Z,4.13
2018-04-24T15:52:49.099Z,3.03
2018-04-24T15:55:15.291Z,2.70
2018-04-24T15:57:41.516Z,7.07
2018-04-24T16:00:07.586Z,4.10
2018-04-24T16:02:33.724Z,2.00
2018-04-24T16:04:59.818Z,2.47
2018-04-24T16:07:25.894Z,3.33
2018-04-24T16:09:52.010Z,4.27
2018-04-24T16:12:18.194Z,4.47
2018-04-24T16:14:44.298Z,4.00
2018-04-24T16:17:10.405Z,2.50
2018-04-24T16:19:37.289Z,3.30
2018-04-24T16:22:03.468Z,6.53
2018-04-24T16:24:29.588Z,3.77
2018-04-24T16:26:55.691Z,2.43
2018-04-24T16:29:21.874Z,2.67
2018-04-24T16:31:47.986Z,3.50
2018-04-24T16:34:14.119Z,3.83
2018-04-24T16:36:40.234Z,2.90
2018-04-24T16:39:06.334Z,3.90
2018-04-24T16:41:32.470Z,3.03
2018-04-24T16:43:58.552Z,4.63
2018-04-24T16:46:24.793Z,2.70
2018-04-24T16:48:50.991Z,2.87
2018-04-24T16:51:17.074Z,4.13
2018-04-24T16:53:43.974Z,3.90
2018-04-24T16:56:10.183Z,4.80
2018-04-24T16:58:36.299Z,5.07
2018-04-24T17:01:03.164Z,3.17
2018-04-24T17:03:29.467Z,5.37
2018-04-24T17:05:55.533Z,6.30
2018-04-24T17:08:22.457Z,5.30
2018-04-24T17:10:48.562Z,3.23
2018-04-24T17:13:14.630Z,4.20
2018-04-24T17:15:40.731Z,3.07
2018-04-24T17:18:06.863Z,3.37
2018-04-24T17:20:32.938Z,6.67
2018-04-24T17:22:59.039Z,3.40
2018-04-24T17:25:25.147Z,3.67
2018-04-24T17:27:51.963Z,4.77
2018-04-24T17:30:18.103Z,2.97
2018-04-24T17:32:44.179Z,3.27
2018-04-24T17:35:10.273Z,3.53
2018-04-24T17:37:36.341Z,3.80
2018-04-24T17:40:02.446Z,4.47
2018-04-24T17:42:28.581Z,3.57
2018-04-24T17:44:54.707Z,6.07
2018-04-24T17:47:20.866Z,5.30
2018-04-24T17:49:46.934Z,3.83
2018-04-24T17:52:13.053Z,3.70
2018-04-24T17:54:39.126Z,3.80
2018-04-24T17:57:05.994Z,4.03
2018-04-24T17:59:32.074Z,4.97
2018-04-24T18:01:58.287Z,7.13
2018-04-24T18:04:24.382Z,3.30
2018-04-24T18:06:50.479Z,9.93
2018-04-24T18:09:16.626Z,4.03
2018-04-24T18:11:42.752Z,3.50
2018-04-24T18:14:08.874Z,3.77
2018-04-24T18:16:35.706Z,4.03
2018-04-24T18:19:01.766Z,4.77
2018-04-24T18:21:27.901Z,3.80
2018-04-24T18:23:54.126Z,3.90
2018-04-24T18:26:21.014Z,4.63
2018-04-24T18:28:47.154Z,4.40
2018-04-24T18:31:13.258Z,5.80
2018-04-24T18:33:40.120Z,3.47
2018-04-24T18:36:06.950Z,4.03
2018-04-24T18:38:33.019Z,3.40
2018-04-24T18:40:59.115Z,3.83
2018-04-24T18:43:25.191Z,5.17
2018-04-24T18:45:52.094Z,4.50
2018-04-24T18:48:18.190Z,3.73
2018-04-24T18:50:45.002Z,7.33
2018-04-24T18:53:11.131Z,9.77
2018-04-24T18:55:37.176Z,6.67
2018-04-24T18:58:03.297Z,6.17
2018-04-24T19:00:29.370Z,4.10
2018-04-24T19:02:55.494Z,3.50
2018-04-24T19:05:21.575Z,4.60
2018-04-24T19:07:47.708Z,6.37
2018-04-24T19:10:14.502Z,3.80
2018-04-24T19:12:40.612Z,7.03
2018-04-24T19:15:06.694Z,4.13
2018-04-24T19:17:32.814Z,7.00
2018-04-24T19:19:58.914Z,5.47
2018-04-24T19:22:25.730Z,5.40
2018-04-24T19:24:57.853Z,4.23
2018-04-24T19:27:23.912Z,5.00
2018-04-24T19:29:50.008Z,4.93
2018-04-24T19:32:22.991Z,6.97
2018-04-24T19:34:49.089Z,7.00
2018-04-24T19:37:15.954Z,4.50
2018-04-24T19:39:48.243Z,4.80
2018-04-24T19:42:14.406Z,5.43
2018-04-24T19:44:40.486Z,6.63
2018-04-24T19:47:06.552Z,4.77
2018-04-24T19:49:39.505Z,9.60
2018-04-24T19:52:06.382Z,6.43
2018-04-24T19:54:32.596Z,5.53
2018-04-24T19:56:59.413Z,5.80
2018-04-24T19:59:25.501Z,5.40
2018-04-24T20:01:51.666Z,11.10
2018-04-24T20:04:17.806Z,7.63
2018-04-24T20:06:43.973Z,5.83
2018-04-24T20:09:10.098Z,13.43
2018-04-24T20:11:36.218Z,5.40
2018-04-24T20:14:02.301Z,6.13
2018-04-24T20:16:28.413Z,4.50
2018-04-24T20:18:54.496Z,6.13
2018-04-24T20:21:21.342Z,7.03
2018-04-24T20:23:47.431Z,7.40
2018-04-24T20:26:13.499Z,5.33
2018-04-24T20:28:39.720Z,4.70
2018-04-24T20:31:05.874Z,6.40
2018-04-24T20:33:31.958Z,5.57
2018-04-24T20:35:58.798Z,5.37
2018-04-24T20:38:25.672Z,6.97
2018-04-24T20:40:51.763Z,5.30
2018-04-24T20:43:17.834Z,5.90
2018-04-24T20:45:44.731Z,5.73
2018-04-24T20:48:10.890Z,6.23
2018-04-24T20:50:37.042Z,14.07
2018-04-24T20:53:03.134Z,8.60
2018-04-24T20:55:29.266Z,5.33
2018-04-24T20:57:55.397Z,6.00
2018-04-24T21:00:21.474Z,5.50
2018-04-24T21:02:47.582Z,5.30
2018-04-24T21:05:13.664Z,5.30
2018-04-24T21:07:39.778Z,5.80
2018-04-24T21:10:05.855Z,5.87
2018-04-24T21:12:32.070Z,5.87
2018-04-24T21:14:58.186Z,5.73
2018-04-24T21:17:24.331Z,6.77
2018-04-24T21:19:50.458Z,6.67
2018-04-24T21:22:16.593Z,5.63
2018-04-24T21:24:43.410Z,6.80
2018-04-24T21:27:09.633Z,7.23
2018-04-24T21:29:35.759Z,7.77
2018-04-24T21:32:01.890Z,6.70
2018-04-24T21:34:28.011Z,7.03
2018-04-24T21:36:54.158Z,7.77
2018-04-24T21:39:20.249Z,6.50
2018-04-24T21:41:47.058Z,7.70
2018-04-24T21:44:13.163Z,8.23
2018-04-24T21:46:39.231Z,8.00
2018-04-24T21:49:05.310Z,10.83
2018-04-24T21:51:31.515Z,8.53
2018-04-24T21:53:57.596Z,7.40
2018-04-24T21:56:24.481Z,7.07
2018-04-24T21:58:50.556Z,7.30
2018-04-24T22:01:16.639Z,7.07
2018-04-24T22:03:43.503Z,8.10
2018-04-24T22:06:09.590Z,8.20
2018-04-24T22:08:35.687Z,9.00
2018-04-24T22:11:01.781Z,7.33
2018-04-24T22:13:27.893Z,10.23
2018-04-24T22:15:53.995Z,7.77
2018-04-24T22:18:20.124Z,8.90
2018-04-24T22:20:46.993Z,9.30
2018-04-24T22:23:13.066Z,11.60
2018-04-24T22:25:39.178Z,9.33
2018-04-24T22:28:05.278Z,8.30
2018-04-24T22:30:32.155Z,8.83
2018-04-24T22:32:58.401Z,10.53
2018-04-24T22:35:24.362Z,8.07
2018-04-24T22:37:50.443Z,10.53
2018-04-24T22:40:17.350Z,9.02
2018-04-24T22:42:43.422Z,8.40
2018-04-24T22:45:09.531Z,8.25
2018-04-24T22:47:35.629Z,9.60
2018-04-24T22:50:02.463Z,9.43
2018-04-24T22:52:28.577Z,8.13
2018-04-24T22:54:54.718Z,10.87
2018-04-24T22:57:20.830Z,13.13
2018-04-24T22:59:46.907Z,10.20
2018-04-24T23:02:13.018Z,9.43
2018-04-24T23:04:39.118Z,7.70
2018-04-24T23:07:05.239Z,8.90
2018-04-24T23:09:31.335Z,7.67
2018-04-24T23:12:09.838Z,12.80
2018-04-24T23:14:48.239Z,8.90
2018-04-24T23:17:26.614Z,7.23
2018-04-24T23:20:05.066Z,8.70
2018-04-24T23:22:31.171Z,7.43
2018-04-24T23:24:57.246Z,8.30
2018-04-24T23:27:23.317Z,7.63
2018-04-24T23:29:50.174Z,9.00
2018-04-24T23:32:16.993Z,7.47
2018-04-24T23:34:43.113Z,7.73
2018-04-24T23:37:09.207Z,8.60
2018-04-24T23:39:36.017Z,7.60
2018-04-24T23:42:02.123Z,6.60
2018-04-24T23:44:28.203Z,8.27
2018-04-24T23:46:54.307Z,12.23
2018-04-24T23:49:20.384Z,11.37
2018-04-24T23:51:46.595Z,10.03
2018-04-24T23:54:12.697Z,9.13
2018-04-24T23:56:38.807Z,8.87
2018-04-24T23:59:04.887Z,8.37
